Aviation Digital Data Service (ADDS)

Output produced by METARs form (2054 UTC 29 May 2017)
found at http://www.aviationweather.gov/adds/metars/
 
OBBI 292030Z 30013KT CAVOK 33/23 Q1003 NOSIG
TAF OBBI 291700Z 2918/3100 32013KT CAVOK 
     BECMG 3003/3005 34020G30KT 8000 NSC 
     PROB30 
     TEMPO 3006/3100 4000 BLDU